sensor_id;sensor_type;location;lat;lon;timestamp;pressure;altitude;pressure_sealevel;temperature;humidity
28428;BME280;15662;49.128;8.520;2023-01-29T00:00:11;101726.16;;;7.86;41.72
28428;BME280;15662;49.128;8.520;2023-01-29T00:02:43;101731.44;;;7.87;41.92
28428;BME280;15662;49.128;8.520;2023-01-29T00:05:11;101734.94;;;7.86;41.86
28428;BME280;15662;49.128;8.520;2023-01-29T00:07:55;101733.19;;;7.85;41.90
28428;BME280;15662;49.128;8.520;2023-01-29T00:10:24;101734.94;;;7.85;41.86
28428;BME280;15662;49.128;8.520;2023-01-29T00:12:52;101732.28;;;7.82;41.85
28428;BME280;15662;49.128;8.520;2023-01-29T00:15:20;101723.47;;;7.80;41.98
28428;BME280;15662;49.128;8.520;2023-01-29T00:17:48;101727.03;;;7.88;41.78
28428;BME280;15662;49.128;8.520;2023-01-29T00:20:16;101727.94;;;7.90;41.70
28428;BME280;15662;49.128;8.520;2023-01-29T00:22:45;101734.09;;;7.90;42.06
28428;BME280;15662;49.128;8.520;2023-01-29T00:25:12;101727.94;;;7.90;41.46
28428;BME280;15662;49.128;8.520;2023-01-29T00:27:40;101728.78;;;7.86;41.88
28428;BME280;15662;49.128;8.520;2023-01-29T00:30:09;101721.75;;;7.86;41.77
28428;BME280;15662;49.128;8.520;2023-01-29T00:32:41;101720.84;;;7.83;41.62
28428;BME280;15662;49.128;8.520;2023-01-29T00:35:10;101723.47;;;7.83;41.84
28428;BME280;15662;49.128;8.520;2023-01-29T00:37:38;101728.75;;;7.81;41.92
28428;BME280;15662;49.128;8.520;2023-01-29T00:40:07;101714.63;;;7.78;41.29
28428;BME280;15662;49.128;8.520;2023-01-29T00:42:36;101720.78;;;7.75;41.63
28428;BME280;15662;49.128;8.520;2023-01-29T00:45:22;101716.38;;;7.69;41.27
28428;BME280;15662;49.128;8.520;2023-01-29T00:47:50;101725.16;;;7.73;41.13
28428;BME280;15662;49.128;8.520;2023-01-29T00:50:19;101722.53;;;7.73;41.40
28428;BME280;15662;49.128;8.520;2023-01-29T00:52:47;101702.22;;;7.63;41.13
28428;BME280;15662;49.128;8.520;2023-01-29T00:55:16;101713.69;;;7.68;41.52
28428;BME280;15662;49.128;8.520;2023-01-29T00:57:45;101719.84;;;7.65;41.34
28428;BME280;15662;49.128;8.520;2023-01-29T01:00:17;101727.75;;;7.67;41.33
28428;BME280;15662;49.128;8.520;2023-01-29T01:02:45;101731.28;;;7.64;41.37
28428;BME280;15662;49.128;8.520;2023-01-29T01:05:32;101733.00;;;7.61;41.26
28428;BME280;15662;49.128;8.520;2023-01-29T01:08:00;101737.41;;;7.62;41.22
28428;BME280;15662;49.128;8.520;2023-01-29T01:10:31;101729.47;;;7.63;41.17
28428;BME280;15662;49.128;8.520;2023-01-29T01:13:03;101730.38;;;7.62;41.45
28428;BME280;15662;49.128;8.520;2023-01-29T01:15:38;101725.97;;;7.63;41.69
28428;BME280;15662;49.128;8.520;2023-01-29T01:18:06;101725.13;;;7.67;41.48
28428;BME280;15662;49.128;8.520;2023-01-29T01:20:35;101740.97;;;7.67;41.51
28428;BME280;15662;49.128;8.520;2023-01-29T01:23:04;101735.69;;;7.68;41.53
28428;BME280;15662;49.128;8.520;2023-01-29T01:25:32;101736.59;;;7.69;41.41
28428;BME280;15662;49.128;8.520;2023-01-29T01:28:00;101722.41;;;7.58;41.48
28428;BME280;15662;49.128;8.520;2023-01-29T01:30:28;101744.56;;;7.73;41.47
28428;BME280;15662;49.128;8.520;2023-01-29T01:32:56;101743.63;;;7.73;41.20
28428;BME280;15662;49.128;8.520;2023-01-29T01:35:24;101743.69;;;7.74;41.22
28428;BME280;15662;49.128;8.520;2023-01-29T01:37:52;101740.13;;;7.72;41.38
28428;BME280;15662;49.128;8.520;2023-01-29T01:40:22;101741.91;;;7.73;41.18
28428;BME280;15662;49.128;8.520;2023-01-29T01:43:00;101742.75;;;7.72;41.33
28428;BME280;15662;49.128;8.520;2023-01-29T01:45:35;101733.09;;;7.73;41.24
28428;BME280;15662;49.128;8.520;2023-01-29T01:48:14;101728.69;;;7.69;41.10
28428;BME280;15662;49.128;8.520;2023-01-29T01:51:00;101735.72;;;7.71;40.89
28428;BME280;15662;49.128;8.520;2023-01-29T01:53:49;101724.28;;;7.69;40.98
28428;BME280;15662;49.128;8.520;2023-01-29T01:56:25;101719.84;;;7.68;41.29
28428;BME280;15662;49.128;8.520;2023-01-29T01:58:56;101724.28;;;7.72;41.44
28428;BME280;15662;49.128;8.520;2023-01-29T02:01:26;101726.03;;;7.72;41.57
28428;BME280;15662;49.128;8.520;2023-01-29T02:04:06;101726.91;;;7.72;41.47
28428;BME280;15662;49.128;8.520;2023-01-29T02:06:55;101726.91;;;7.72;41.45
28428;BME280;15662;49.128;8.520;2023-01-29T02:09:59;101718.13;;;7.72;41.25
28428;BME280;15662;49.128;8.520;2023-01-29T02:12:28;101728.69;;;7.72;41.61
28428;BME280;15662;49.128;8.520;2023-01-29T02:14:59;101729.56;;;7.72;41.50
28428;BME280;15662;49.128;8.520;2023-01-29T02:17:27;101716.31;;;7.66;41.37
28428;BME280;15662;49.128;8.520;2023-01-29T02:20:22;101715.47;;;7.70;41.21
28428;BME280;15662;49.128;8.520;2023-01-29T02:29:06;101729.59;;;7.74;41.67
28428;BME280;15662;49.128;8.520;2023-01-29T02:32:17;101724.31;;;7.74;41.39
28428;BME280;15662;49.128;8.520;2023-01-29T02:38:15;101726.06;;;7.73;41.46
28428;BME280;15662;49.128;8.520;2023-01-29T02:41:00;101722.56;;;7.74;41.16
28428;BME280;15662;49.128;8.520;2023-01-29T02:43:47;101717.25;;;7.70;40.83
28428;BME280;15662;49.128;8.520;2023-01-29T02:49:24;101716.41;;;7.74;41.25
28428;BME280;15662;49.128;8.520;2023-01-29T02:52:29;101716.38;;;7.69;41.43
28428;BME280;15662;49.128;8.520;2023-01-29T02:55:17;101686.38;;;7.61;40.95
28428;BME280;15662;49.128;8.520;2023-01-29T02:57:51;101695.22;;;7.65;41.26
28428;BME280;15662;49.128;8.520;2023-01-29T03:00:26;101704.03;;;7.73;41.23
28428;BME280;15662;49.128;8.520;2023-01-29T03:03:16;101713.75;;;7.74;40.69
28428;BME280;15662;49.128;8.520;2023-01-29T03:08:42;101695.25;;;7.69;41.56
28428;BME280;15662;49.128;8.520;2023-01-29T03:11:14;101710.22;;;7.70;41.20
28428;BME280;15662;49.128;8.520;2023-01-29T03:13:58;101705.81;;;7.72;40.89
28428;BME280;15662;49.128;8.520;2023-01-29T03:16:52;101706.69;;;7.70;41.40
28428;BME280;15662;49.128;8.520;2023-01-29T03:19:38;101689.91;;;7.62;41.38
28428;BME280;15662;49.128;8.520;2023-01-29T03:22:17;101704.88;;;7.66;41.41
28428;BME280;15662;49.128;8.520;2023-01-29T03:24:57;101709.28;;;7.68;41.49
28428;BME280;15662;49.128;8.520;2023-01-29T03:27:56;101699.63;;;7.66;41.46
28428;BME280;15662;49.128;8.520;2023-01-29T03:30:59;101705.78;;;7.65;41.43
28428;BME280;15662;49.128;8.520;2023-01-29T03:34:15;101702.22;;;7.61;41.33
28428;BME280;15662;49.128;8.520;2023-01-29T03:36:57;101706.66;;;7.64;41.57
28428;BME280;15662;49.128;8.520;2023-01-29T03:39:28;101708.38;;;7.62;41.83
28428;BME280;15662;49.128;8.520;2023-01-29T03:42:12;101693.41;;;7.59;41.53
28428;BME280;15662;49.128;8.520;2023-01-29T03:48:02;101713.66;;;7.59;41.50
28428;BME280;15662;49.128;8.520;2023-01-29T03:53:29;101719.72;;;7.50;41.70
28428;BME280;15662;49.128;8.520;2023-01-29T03:56:08;101716.16;;;7.46;41.51
28428;BME280;15662;49.128;8.520;2023-01-29T04:01:51;101716.09;;;7.39;41.75
28428;BME280;15662;49.128;8.520;2023-01-29T04:04:28;101714.31;;;7.36;41.84
28428;BME280;15662;49.128;8.520;2023-01-29T04:07:13;101718.72;;;7.34;41.82
28428;BME280;15662;49.128;8.520;2023-01-29T04:09:46;101716.91;;;7.30;42.13
28428;BME280;15662;49.128;8.520;2023-01-29T04:12:23;101723.06;;;7.32;41.58
28428;BME280;15662;49.128;8.520;2023-01-29T04:14:53;101719.50;;;7.29;41.90
28428;BME280;15662;49.128;8.520;2023-01-29T04:17:30;101720.44;;;7.29;41.92
28428;BME280;15662;49.128;8.520;2023-01-29T04:20:10;101716.97;;;7.35;41.86
28428;BME280;15662;49.128;8.520;2023-01-29T04:22:44;101714.28;;;7.33;41.85
28428;BME280;15662;49.128;8.520;2023-01-29T04:25:20;101718.72;;;7.36;41.83
28428;BME280;15662;49.128;8.520;2023-01-29T04:28:21;101725.75;;;7.35;41.68
28428;BME280;15662;49.128;8.520;2023-01-29T04:30:58;101723.06;;;7.32;42.00
28428;BME280;15662;49.128;8.520;2023-01-29T04:33:35;101729.22;;;7.33;41.88
28428;BME280;15662;49.128;8.520;2023-01-29T04:36:29;101738.91;;;7.32;41.58
28428;BME280;15662;49.128;8.520;2023-01-29T04:42:41;101721.31;;;7.31;42.06
28428;BME280;15662;49.128;8.520;2023-01-29T04:45:18;101730.97;;;7.32;41.98
28428;BME280;15662;49.128;8.520;2023-01-29T04:48:18;101717.84;;;7.35;41.73
28428;BME280;15662;49.128;8.520;2023-01-29T04:51:02;101726.63;;;7.36;41.73
28428;BME280;15662;49.128;8.520;2023-01-29T04:53:50;101726.63;;;7.37;41.91
28428;BME280;15662;49.128;8.520;2023-01-29T04:59:31;101728.34;;;7.34;41.78
28428;BME280;15662;49.128;8.520;2023-01-29T05:02:00;101733.63;;;7.32;42.00
28428;BME280;15662;49.128;8.520;2023-01-29T05:04:31;101733.66;;;7.37;42.07
28428;BME280;15662;49.128;8.520;2023-01-29T05:07:04;101729.25;;;7.34;41.95
28428;BME280;15662;49.128;8.520;2023-01-29T05:09:36;101734.59;;;7.42;42.21
28428;BME280;15662;49.128;8.520;2023-01-29T05:12:08;101712.66;;;7.44;42.12
28428;BME280;15662;49.128;8.520;2023-01-29T05:14:42;101715.28;;;7.46;42.46
28428;BME280;15662;49.128;8.520;2023-01-29T05:17:17;101696.75;;;7.37;41.92
28428;BME280;15662;49.128;8.520;2023-01-29T05:19:46;101699.38;;;7.38;41.97
28428;BME280;15662;49.128;8.520;2023-01-29T05:22:17;101689.69;;;7.39;41.73
28428;BME280;15662;49.128;8.520;2023-01-29T05:24:45;101685.34;;;7.39;41.93
28428;BME280;15662;49.128;8.520;2023-01-29T05:27:26;101687.09;;;7.40;42.08
28428;BME280;15662;49.128;8.520;2023-01-29T05:30:15;101697.44;;;7.16;42.34
28428;BME280;15662;49.128;8.520;2023-01-29T05:32:43;101706.28;;;7.21;42.64
28428;BME280;15662;49.128;8.520;2023-01-29T05:35:11;101699.25;;;7.20;42.38
28428;BME280;15662;49.128;8.520;2023-01-29T05:37:39;101689.56;;;7.20;42.30
28428;BME280;15662;49.128;8.520;2023-01-29T05:40:08;101701.91;;;7.26;42.34
28428;BME280;15662;49.128;8.520;2023-01-29T05:42:36;101703.69;;;7.26;42.20
28428;BME280;15662;49.128;8.520;2023-01-29T05:45:04;101701.97;;;7.29;42.34
28428;BME280;15662;49.128;8.520;2023-01-29T05:47:32;101688.75;;;7.28;42.13
28428;BME280;15662;49.128;8.520;2023-01-29T05:50:00;101694.94;;;7.31;42.25
28428;BME280;15662;49.128;8.520;2023-01-29T05:52:28;101699.28;;;7.26;41.91
28428;BME280;15662;49.128;8.520;2023-01-29T05:54:56;101699.25;;;7.23;42.41
28428;BME280;15662;49.128;8.520;2023-01-29T05:57:23;101716.88;;;7.26;42.21
28428;BME280;15662;49.128;8.520;2023-01-29T05:59:51;101721.25;;;7.25;42.12
28428;BME280;15662;49.128;8.520;2023-01-29T06:02:19;101716.88;;;7.26;42.18
28428;BME280;15662;49.128;8.520;2023-01-29T06:04:50;101710.66;;;7.22;42.17
28428;BME280;15662;49.128;8.520;2023-01-29T06:07:18;101719.47;;;7.24;42.12
28428;BME280;15662;49.128;8.520;2023-01-29T06:09:46;101711.59;;;7.27;42.46
28428;BME280;15662;49.128;8.520;2023-01-29T06:12:14;101714.28;;;7.30;41.99
28428;BME280;15662;49.128;8.520;2023-01-29T06:14:42;101722.19;;;7.30;42.46
28428;BME280;15662;49.128;8.520;2023-01-29T06:17:10;101720.44;;;7.32;42.02
28428;BME280;15662;49.128;8.520;2023-01-29T06:19:38;101717.78;;;7.32;41.78
28428;BME280;15662;49.128;8.520;2023-01-29T06:22:06;101709.88;;;7.32;42.06
28428;BME280;15662;49.128;8.520;2023-01-29T06:24:34;101706.38;;;7.33;42.44
28428;BME280;15662;49.128;8.520;2023-01-29T06:27:01;101712.50;;;7.31;42.03
28428;BME280;15662;49.128;8.520;2023-01-29T06:29:29;101711.59;;;7.27;42.31
28428;BME280;15662;49.128;8.520;2023-01-29T06:31:57;101715.09;;;7.24;41.99
28428;BME280;15662;49.128;8.520;2023-01-29T06:34:25;101713.31;;;7.22;42.20
28428;BME280;15662;49.128;8.520;2023-01-29T06:36:53;101707.97;;;7.16;42.27
28428;BME280;15662;49.128;8.520;2023-01-29T06:39:20;101700.94;;;7.16;42.51
28428;BME280;15662;49.128;8.520;2023-01-29T06:41:48;101705.34;;;7.17;42.21
28428;BME280;15662;49.128;8.520;2023-01-29T06:44:16;101714.09;;;7.13;42.45
28428;BME280;15662;49.128;8.520;2023-01-29T06:46:44;101717.59;;;7.11;42.41
28428;BME280;15662;49.128;8.520;2023-01-29T06:49:12;101711.41;;;7.07;42.49
28428;BME280;15662;49.128;8.520;2023-01-29T06:51:39;101712.28;;;7.08;42.14
28428;BME280;15662;49.128;8.520;2023-01-29T06:54:09;101715.88;;;7.14;42.59
28428;BME280;15662;49.128;8.520;2023-01-29T06:56:37;101719.41;;;7.16;42.51
28428;BME280;15662;49.128;8.520;2023-01-29T06:59:04;101729.09;;;7.19;42.63
28428;BME280;15662;49.128;8.520;2023-01-29T07:01:33;101719.41;;;7.18;42.31
28428;BME280;15662;49.128;8.520;2023-01-29T07:04:03;101707.94;;;7.13;42.73
28428;BME280;15662;49.128;8.520;2023-01-29T07:06:31;101717.66;;;7.15;42.42
28428;BME280;15662;49.128;8.520;2023-01-29T07:09:00;101710.63;;;7.16;42.52
28428;BME280;15662;49.128;8.520;2023-01-29T07:11:28;101715.00;;;7.17;42.07
28428;BME280;15662;49.128;8.520;2023-01-29T07:13:56;101716.78;;;7.16;42.21
28428;BME280;15662;49.128;8.520;2023-01-29T07:16:23;101720.34;;;7.20;42.29
28428;BME280;15662;49.128;8.520;2023-01-29T07:18:53;101722.97;;;7.21;42.31
28428;BME280;15662;49.128;8.520;2023-01-29T07:21:20;101712.44;;;7.21;42.32
28428;BME280;15662;49.128;8.520;2023-01-29T07:23:49;101721.25;;;7.27;42.10
28428;BME280;15662;49.128;8.520;2023-01-29T07:26:17;101710.72;;;7.28;42.40
28428;BME280;15662;49.128;8.520;2023-01-29T07:28:44;101707.16;;;7.23;42.16
28428;BME280;15662;49.128;8.520;2023-01-29T07:31:13;101716.00;;;7.27;42.25
28428;BME280;15662;49.128;8.520;2023-01-29T07:33:43;101730.94;;;7.24;42.69
28428;BME280;15662;49.128;8.520;2023-01-29T07:36:12;101725.59;;;7.20;42.73
28428;BME280;15662;49.128;8.520;2023-01-29T07:38:40;101735.22;;;7.15;42.50
28428;BME280;15662;49.128;8.520;2023-01-29T07:41:09;101750.19;;;7.17;42.68
28428;BME280;15662;49.128;8.520;2023-01-29T07:43:38;101753.69;;;7.18;42.32
28428;BME280;15662;49.128;8.520;2023-01-29T07:46:05;101758.97;;;7.15;42.68
28428;BME280;15662;49.128;8.520;2023-01-29T07:48:33;101758.06;;;7.14;42.41
28428;BME280;15662;49.128;8.520;2023-01-29T07:51:01;101764.22;;;7.15;42.72
28428;BME280;15662;49.128;8.520;2023-01-29T07:53:29;101754.56;;;7.15;42.86
28428;BME280;15662;49.128;8.520;2023-01-29T07:55:57;101755.47;;;7.17;42.47
28428;BME280;15662;49.128;8.520;2023-01-29T07:58:25;101759.03;;;7.22;42.74
28428;BME280;15662;49.128;8.520;2023-01-29T08:00:53;101744.06;;;7.20;42.78
28428;BME280;15662;49.128;8.520;2023-01-29T08:03:21;101759.88;;;7.20;42.54
28428;BME280;15662;49.128;8.520;2023-01-29T08:05:49;101753.69;;;7.18;42.23
28428;BME280;15662;49.128;8.520;2023-01-29T08:08:17;101747.53;;;7.14;42.76
28428;BME280;15662;49.128;8.520;2023-01-29T08:10:45;101754.56;;;7.15;42.40
28428;BME280;15662;49.128;8.520;2023-01-29T08:13:13;101758.91;;;7.13;42.61
28428;BME280;15662;49.128;8.520;2023-01-29T08:15:42;101763.34;;;7.16;42.29
28428;BME280;15662;49.128;8.520;2023-01-29T08:18:13;101763.34;;;7.14;42.40
28428;BME280;15662;49.128;8.520;2023-01-29T08:20:41;101769.50;;;7.16;42.48
28428;BME280;15662;49.128;8.520;2023-01-29T08:23:13;101773.84;;;7.10;42.47
28428;BME280;15662;49.128;8.520;2023-01-29T08:25:42;101771.13;;;7.04;42.64
28428;BME280;15662;49.128;8.520;2023-01-29T08:28:11;101767.59;;;7.02;42.79
28428;BME280;15662;49.128;8.520;2023-01-29T08:30:39;101768.47;;;7.04;42.85
28428;BME280;15662;49.128;8.520;2023-01-29T08:33:07;101779.06;;;7.07;42.89
28428;BME280;15662;49.128;8.520;2023-01-29T08:35:35;101774.63;;;7.04;42.44
28428;BME280;15662;49.128;8.520;2023-01-29T08:38:04;101777.31;;;7.06;42.46
28428;BME280;15662;49.128;8.520;2023-01-29T08:40:33;101776.44;;;7.08;42.65
28428;BME280;15662;49.128;8.520;2023-01-29T08:43:04;101775.63;;;7.12;42.37
28428;BME280;15662;49.128;8.520;2023-01-29T08:45:41;101783.56;;;7.15;42.75
28428;BME280;15662;49.128;8.520;2023-01-29T08:48:29;101769.50;;;7.16;42.87
28428;BME280;15662;49.128;8.520;2023-01-29T08:51:17;101770.44;;;7.21;42.82
28428;BME280;15662;49.128;8.520;2023-01-29T08:54:05;101761.66;;;7.24;42.51
28428;BME280;15662;49.128;8.520;2023-01-29T08:56:33;101765.22;;;7.28;42.55
28428;BME280;15662;49.128;8.520;2023-01-29T08:59:00;101765.22;;;7.26;42.12
28428;BME280;15662;49.128;8.520;2023-01-29T09:01:28;101766.16;;;7.30;42.61
28428;BME280;15662;49.128;8.520;2023-01-29T09:03:56;101767.03;;;7.30;42.47
28428;BME280;15662;49.128;8.520;2023-01-29T09:06:24;101753.75;;;7.19;42.28
28428;BME280;15662;49.128;8.520;2023-01-29T09:08:52;101783.72;;;7.31;42.47
28428;BME280;15662;49.128;8.520;2023-01-29T09:11:20;101791.66;;;7.32;42.48
28428;BME280;15662;49.128;8.520;2023-01-29T09:13:48;101803.13;;;7.37;42.07
28428;BME280;15662;49.128;8.520;2023-01-29T09:16:17;101799.66;;;7.40;42.47
28428;BME280;15662;49.128;8.520;2023-01-29T09:18:45;101790.91;;;7.48;42.13
28428;BME280;15662;49.128;8.520;2023-01-29T09:21:13;101790.13;;;7.54;42.41
28428;BME280;15662;49.128;8.520;2023-01-29T09:23:41;101771.66;;;7.56;42.22
28428;BME280;15662;49.128;8.520;2023-01-29T09:26:08;101762.03;;;7.62;41.86
28428;BME280;15662;49.128;8.520;2023-01-29T09:28:36;101741.78;;;7.60;42.14
28428;BME280;15662;49.128;8.520;2023-01-29T09:31:04;101734.78;;;7.65;41.95
28428;BME280;15662;49.128;8.520;2023-01-29T09:33:33;101726.00;;;7.66;42.31
28428;BME280;15662;49.128;8.520;2023-01-29T09:36:02;101713.72;;;7.69;41.65
28428;BME280;15662;49.128;8.520;2023-01-29T09:38:31;101722.59;;;7.79;41.93
28428;BME280;15662;49.128;8.520;2023-01-29T09:41:36;101723.47;;;7.80;41.22
28428;BME280;15662;49.128;8.520;2023-01-29T09:44:38;101727.00;;;7.80;41.54
28428;BME280;15662;49.128;8.520;2023-01-29T09:47:15;101734.03;;;7.81;42.20
28428;BME280;15662;49.128;8.520;2023-01-29T09:55:25;101709.47;;;7.91;41.36
28428;BME280;15662;49.128;8.520;2023-01-29T09:58:00;101727.97;;;7.97;41.57
28428;BME280;15662;49.128;8.520;2023-01-29T10:00:56;101738.56;;;8.02;41.54
28428;BME280;15662;49.128;8.520;2023-01-29T10:12:32;101743.81;;;7.97;41.32
28428;BME280;15662;49.128;8.520;2023-01-29T10:15:23;101747.41;;;8.06;41.98
28428;BME280;15662;49.128;8.520;2023-01-29T10:27:00;101756.34;;;8.26;41.49
28428;BME280;15662;49.128;8.520;2023-01-29T10:29:30;101756.38;;;8.31;41.56
28428;BME280;15662;49.128;8.520;2023-01-29T10:32:01;101759.06;;;8.37;41.73
28428;BME280;15662;49.128;8.520;2023-01-29T10:34:41;101764.41;;;8.44;41.17
28428;BME280;15662;49.128;8.520;2023-01-29T10:37:39;101753.84;;;8.46;41.64
28428;BME280;15662;49.128;8.520;2023-01-29T10:40:26;101762.66;;;8.51;41.54
28428;BME280;15662;49.128;8.520;2023-01-29T11:00:58;101727.47;;;8.61;41.19
28428;BME280;15662;49.128;8.520;2023-01-29T11:03:30;101721.31;;;8.64;40.95
28428;BME280;15662;49.128;8.520;2023-01-29T11:06:25;101724.78;;;8.47;40.99
28428;BME280;15662;49.128;8.520;2023-01-29T11:11:56;101708.06;;;8.56;40.94
28428;BME280;15662;49.128;8.520;2023-01-29T11:17:20;101695.78;;;8.69;40.63
28428;BME280;15662;49.128;8.520;2023-01-29T11:19:52;101692.25;;;8.70;40.72
28428;BME280;15662;49.128;8.520;2023-01-29T11:22:28;101691.41;;;8.74;40.54
28428;BME280;15662;49.128;8.520;2023-01-29T11:25:17;101694.91;;;8.71;40.58
28428;BME280;15662;49.128;8.520;2023-01-29T11:27:52;101681.69;;;8.65;40.33
28428;BME280;15662;49.128;8.520;2023-01-29T11:30:28;101675.50;;;8.65;40.43
28428;BME280;15662;49.128;8.520;2023-01-29T11:33:22;101674.66;;;8.67;40.23
28428;BME280;15662;49.128;8.520;2023-01-29T11:35:50;101659.63;;;8.62;40.51
28428;BME280;15662;49.128;8.520;2023-01-29T11:38:28;101675.56;;;8.77;40.57
28428;BME280;15662;49.128;8.520;2023-01-29T11:41:15;101664.97;;;8.78;40.25
28428;BME280;15662;49.128;8.520;2023-01-29T11:43:45;101650.00;;;8.73;40.20
28428;BME280;15662;49.128;8.520;2023-01-29T11:46:14;101648.22;;;8.76;39.92
28428;BME280;15662;49.128;8.520;2023-01-29T11:48:46;101641.16;;;8.75;39.83
28428;BME280;15662;49.128;8.520;2023-01-29T11:51:25;101634.09;;;8.67;40.06
28428;BME280;15662;49.128;8.520;2023-01-29T11:54:04;101645.56;;;8.69;39.51
28428;BME280;15662;49.128;8.520;2023-01-29T11:56:41;101634.97;;;8.64;39.85
28428;BME280;15662;49.128;8.520;2023-01-29T11:59:41;101633.25;;;8.68;39.70
28428;BME280;15662;49.128;8.520;2023-01-29T12:05:01;101615.59;;;8.71;40.27
28428;BME280;15662;49.128;8.520;2023-01-29T12:07:30;101598.88;;;8.68;40.08
28428;BME280;15662;49.128;8.520;2023-01-29T12:09:59;101598.84;;;8.71;39.83
28428;BME280;15662;49.128;8.520;2023-01-29T12:12:43;101595.34;;;8.70;39.51
28428;BME280;15662;49.128;8.520;2023-01-29T12:15:21;101583.88;;;8.70;39.93
28428;BME280;15662;49.128;8.520;2023-01-29T12:18:29;101585.66;;;8.69;40.43
28428;BME280;15662;49.128;8.520;2023-01-29T12:21:04;101574.19;;;8.70;40.51
28428;BME280;15662;49.128;8.520;2023-01-29T12:24:12;101576.84;;;8.75;40.17
28428;BME280;15662;49.128;8.520;2023-01-29T12:27:04;101571.56;;;8.63;40.94
28428;BME280;15662;49.128;8.520;2023-01-29T12:29:48;101573.31;;;8.76;40.56
28428;BME280;15662;49.128;8.520;2023-01-29T12:32:48;101562.75;;;8.82;40.68
28428;BME280;15662;49.128;8.520;2023-01-29T12:35:34;101559.22;;;8.88;40.78
28428;BME280;15662;49.128;8.520;2023-01-29T12:38:20;101553.94;;;8.92;40.91
28428;BME280;15662;49.128;8.520;2023-01-29T12:40:55;101542.47;;;8.95;40.57
28428;BME280;15662;49.128;8.520;2023-01-29T12:43:38;101541.59;;;9.02;40.26
28428;BME280;15662;49.128;8.520;2023-01-29T12:49:23;101523.97;;;9.04;40.20
28428;BME280;15662;49.128;8.520;2023-01-29T12:52:16;101518.66;;;9.10;40.12
28428;BME280;15662;49.128;8.520;2023-01-29T12:54:59;101510.75;;;9.12;40.49
28428;BME280;15662;49.128;8.520;2023-01-29T13:00:27;101508.09;;;9.05;40.13
28428;BME280;15662;49.128;8.520;2023-01-29T13:03:24;101509.84;;;9.05;40.42
28428;BME280;15662;49.128;8.520;2023-01-29T13:06:01;101497.50;;;9.01;40.21
28428;BME280;15662;49.128;8.520;2023-01-29T13:08:48;101493.09;;;9.00;39.98
28428;BME280;15662;49.128;8.520;2023-01-29T13:11:32;101511.63;;;9.08;40.20
28428;BME280;15662;49.128;8.520;2023-01-29T13:14:24;101498.41;;;9.03;40.21
28428;BME280;15662;49.128;8.520;2023-01-29T13:17:05;101496.66;;;9.02;40.47
28428;BME280;15662;49.128;8.520;2023-01-29T13:19:41;101508.09;;;9.16;40.43
28428;BME280;15662;49.128;8.520;2023-01-29T13:22:26;101505.44;;;9.15;40.02
28428;BME280;15662;49.128;8.520;2023-01-29T13:24:56;101504.53;;;9.11;40.49
28428;BME280;15662;49.128;8.520;2023-01-29T13:27:36;101502.78;;;9.15;40.52
28428;BME280;15662;49.128;8.520;2023-01-29T13:30:04;101508.03;;;9.25;40.50
28428;BME280;15662;49.128;8.520;2023-01-29T13:32:35;101498.34;;;9.29;40.45
28428;BME280;15662;49.128;8.520;2023-01-29T13:35:11;101504.50;;;9.29;40.29
28428;BME280;15662;49.128;8.520;2023-01-29T13:37:51;101502.75;;;9.32;40.11
28428;BME280;15662;49.128;8.520;2023-01-29T13:40:29;101501.00;;;9.27;39.66
28428;BME280;15662;49.128;8.520;2023-01-29T13:43:00;101487.78;;;9.27;39.85
28428;BME280;15662;49.128;8.520;2023-01-29T13:45:34;101482.47;;;9.34;40.05
28428;BME280;15662;49.128;8.520;2023-01-29T13:48:28;101493.91;;;9.34;39.39
28428;BME280;15662;49.128;8.520;2023-01-29T13:51:01;101486.88;;;9.30;40.29
28428;BME280;15662;49.128;8.520;2023-01-29T13:53:32;101484.28;;;9.16;40.37
28428;BME280;15662;49.128;8.520;2023-01-29T13:59:03;101484.22;;;9.33;40.15
28428;BME280;15662;49.128;8.520;2023-01-29T14:06:51;101471.84;;;9.44;39.91
28428;BME280;15662;49.128;8.520;2023-01-29T14:12:00;101452.41;;;9.45;39.84
28428;BME280;15662;49.128;8.520;2023-01-29T14:17:17;101464.78;;;9.46;40.09
28428;BME280;15662;49.128;8.520;2023-01-29T14:20:00;101458.59;;;9.47;39.73
28428;BME280;15662;49.128;8.520;2023-01-29T14:22:30;101451.56;;;9.43;40.22
28428;BME280;15662;49.128;8.520;2023-01-29T14:25:03;101450.69;;;9.43;39.88
28428;BME280;15662;49.128;8.520;2023-01-29T14:27:33;101457.75;;;9.42;39.93
28428;BME280;15662;49.128;8.520;2023-01-29T14:30:07;101445.41;;;9.38;39.82
28428;BME280;15662;49.128;8.520;2023-01-29T14:32:38;101456.88;;;9.39;40.17
28428;BME280;15662;49.128;8.520;2023-01-29T14:35:25;101456.84;;;9.36;40.09
28428;BME280;15662;49.128;8.520;2023-01-29T14:37:58;101448.94;;;9.33;40.08
28428;BME280;15662;49.128;8.520;2023-01-29T14:40:28;101451.59;;;9.29;39.98
28428;BME280;15662;49.128;8.520;2023-01-29T14:43:20;101463.94;;;9.32;40.01
28428;BME280;15662;49.128;8.520;2023-01-29T14:49:01;101454.25;;;9.25;40.15
28428;BME280;15662;49.128;8.520;2023-01-29T14:51:36;101460.44;;;9.27;39.73
28428;BME280;15662;49.128;8.520;2023-01-29T14:54:24;101460.41;;;9.25;39.53
28428;BME280;15662;49.128;8.520;2023-01-29T14:57:02;101455.16;;;9.22;39.50
28428;BME280;15662;49.128;8.520;2023-01-29T15:00:01;101456.03;;;9.20;39.76
28428;BME280;15662;49.128;8.520;2023-01-29T15:02:42;101461.31;;;9.20;39.80
28428;BME280;15662;49.128;8.520;2023-01-29T15:05:16;101448.13;;;9.09;39.81
28428;BME280;15662;49.128;8.520;2023-01-29T15:10:44;101468.41;;;9.12;39.60
28428;BME280;15662;49.128;8.520;2023-01-29T15:13:29;101457.81;;;9.15;40.08
28428;BME280;15662;49.128;8.520;2023-01-29T15:16:08;101471.06;;;9.12;39.33
28428;BME280;15662;49.128;8.520;2023-01-29T15:18:42;101457.84;;;9.09;39.95
28428;BME280;15662;49.128;8.520;2023-01-29T15:21:13;101459.59;;;9.08;40.10
28428;BME280;15662;49.128;8.520;2023-01-29T15:23:43;101459.59;;;9.10;39.74
28428;BME280;15662;49.128;8.520;2023-01-29T15:26:18;101464.00;;;9.12;39.76
28428;BME280;15662;49.128;8.520;2023-01-29T15:28:59;101457.84;;;9.12;39.56